Time;durP1;ratioP1;P1;durP2;ratioP2;P2;SDS_P1;SDS_P2;PMS_P1;PMS_P2;Temp;Humidity;BMP_temperature;BMP_pressure;BME280_temperature;BME280_humidity;BME280_pressure;Samples;Min_cycle;Max_cycle;Signal;HPM_P1;HPM_P2
2022/08/14 00:01:59;;;;;;;0.70;0.20;;;25.40;99.90;;;;;;5074180;28;20580;-76
2022/08/14 00:04:29;;;;;;;0.70;0.10;;;25.30;99.90;;;;;;5074152;28;21040;-74
2022/08/14 00:07:06;;;;;;;0.70;0.10;;;25.30;99.90;;;;;;5074108;28;20426;-76
2022/08/14 00:09:34;;;;;;;0.70;0.20;;;25.20;99.90;;;;;;5073930;28;20438;-76
2022/08/14 00:12:22;;;;;;;0.70;0.20;;;25.20;99.90;;;;;;5073966;28;20442;-75
2022/08/14 00:15:00;;;;;;;0.70;0.20;;;25.10;99.90;;;;;;5076513;28;20875;-73
2022/08/14 00:17:30;;;;;;;0.70;0.20;;;25.10;99.90;;;;;;5077701;28;20820;-75
2022/08/14 00:20:15;;;;;;;0.70;0.10;;;25.00;99.90;;;;;;5074214;28;20438;-75
2022/08/14 00:22:56;;;;;;;0.70;0.10;;;25.10;99.90;;;;;;5073331;28;20495;-74
2022/08/14 00:25:26;;;;;;;0.70;0.20;;;25.00;99.90;;;;;;5073852;28;20453;-74
2022/08/14 00:28:11;;;;;;;0.70;0.20;;;25.00;99.90;;;;;;5073307;28;20932;-75
2022/08/14 00:30:45;;;;;;;0.70;0.20;;;25.00;99.90;;;;;;5073327;28;20828;-76
2022/08/14 00:33:15;;;;;;;0.70;0.20;;;25.00;99.90;;;;;;5073332;28;20466;-74
2022/08/14 00:35:44;;;;;;;0.70;0.20;;;25.00;99.90;;;;;;5073219;28;20533;-75
2022/08/14 00:38:32;;;;;;;0.70;0.10;;;25.00;99.90;;;;;;5031048;28;20434;-74
2022/08/14 00:41:02;;;;;;;0.70;0.20;;;24.90;99.90;;;;;;5031180;28;20446;-75
2022/08/14 00:43:30;;;;;;;0.70;0.20;;;24.80;99.90;;;;;;5030802;28;20494;-75
2022/08/14 00:46:02;;;;;;;0.70;0.10;;;24.80;99.90;;;;;;5031045;28;20447;-75
2022/08/14 00:48:37;;;;;;;0.70;0.10;;;24.80;99.90;;;;;;5031291;28;20439;-76
2022/08/14 00:51:10;;;;;;;0.80;0.60;;;24.80;99.90;;;;;;5030873;28;21199;-76
2022/08/14 00:53:39;;;;;;;1.70;1.60;;;24.70;99.90;;;;;;5031254;28;20488;-75
2022/08/14 00:56:10;;;;;;;0.70;0.20;;;24.70;99.90;;;;;;5041261;28;20968;-76
2022/08/14 00:58:42;;;;;;;1.73;0.53;;;24.70;99.90;;;;;;5072977;28;20462;-76
2022/08/14 01:01:17;;;;;;;0.70;0.10;;;24.60;99.90;;;;;;5073169;28;20444;-74
2022/08/14 01:03:47;;;;;;;0.70;0.20;;;24.60;99.90;;;;;;5072950;28;20493;-75
2022/08/14 01:06:20;;;;;;;0.70;0.10;;;24.60;99.90;;;;;;5072718;28;20444;-74
2022/08/14 01:08:49;;;;;;;0.70;0.30;;;24.60;99.90;;;;;;5073096;28;20542;-74
2022/08/14 01:11:25;;;;;;;0.70;0.20;;;24.60;99.90;;;;;;5072818;28;20473;-75
2022/08/14 01:14:02;;;;;;;0.70;0.20;;;24.60;99.90;;;;;;5072508;28;20461;-75
2022/08/14 01:16:50;;;;;;;0.70;0.10;;;24.50;99.90;;;;;;5072522;28;20445;-76
2022/08/14 01:22:10;;;;;;;1.10;0.70;;;24.50;99.90;;;;;;5072580;28;20514;-74
2022/08/14 01:24:41;;;;;;;0.70;0.30;;;24.50;99.90;;;;;;5058855;28;20466;-75
2022/08/14 01:27:14;;;;;;;0.90;0.40;;;24.40;99.90;;;;;;5052229;28;20470;-74
2022/08/14 01:29:42;;;;;;;0.70;0.10;;;24.40;99.90;;;;;;5067490;28;20520;-75
2022/08/14 01:32:31;;;;;;;0.70;0.10;;;24.30;99.90;;;;;;5072403;28;20495;-76
2022/08/14 01:35:06;;;;;;;0.80;0.30;;;24.30;99.90;;;;;;5072705;28;20460;-74
2022/08/14 01:37:57;;;;;;;0.70;0.10;;;24.30;99.90;;;;;;5072406;28;20827;-76
2022/08/14 01:40:26;;;;;;;0.70;0.20;;;24.30;99.90;;;;;;5072310;28;20473;-76
2022/08/14 01:43:07;;;;;;;0.70;0.20;;;24.20;99.90;;;;;;5072386;28;20477;-75
2022/08/14 01:45:38;;;;;;;0.70;0.10;;;24.20;99.90;;;;;;5071855;28;20441;-74
2022/08/14 01:48:08;;;;;;;0.70;0.20;;;24.20;99.90;;;;;;5072248;28;20489;-75
2022/08/14 01:50:41;;;;;;;0.70;0.20;;;24.20;99.90;;;;;;5072527;28;20434;-75
2022/08/14 01:53:13;;;;;;;2.50;1.40;;;24.20;99.90;;;;;;5072592;28;20461;-76
2022/08/14 01:55:41;;;;;;;0.70;0.23;;;24.20;99.90;;;;;;5072720;28;20893;-75
2022/08/14 01:58:14;;;;;;;0.70;0.20;;;24.10;99.90;;;;;;5072520;28;20433;-75
2022/08/14 02:00:52;;;;;;;0.90;0.33;;;23.90;99.90;;;;;;5072703;28;20429;-74
2022/08/14 02:03:22;;;;;;;0.70;0.20;;;23.80;99.90;;;;;;5072687;28;21067;-75
2022/08/14 02:05:50;;;;;;;0.70;0.10;;;23.80;99.90;;;;;;5071989;28;20456;-75
2022/08/14 02:08:20;;;;;;;0.70;0.10;;;23.80;99.90;;;;;;5072823;28;20452;-75
2022/08/14 02:11:22;;;;;;;0.70;0.20;;;23.70;99.90;;;;;;5072536;28;20449;-75
2022/08/14 02:13:57;;;;;;;0.70;0.10;;;23.60;99.90;;;;;;5072494;28;20531;-75
2022/08/14 02:16:28;;;;;;;0.70;0.20;;;23.60;99.90;;;;;;5072181;28;20441;-76
2022/08/14 02:18:58;;;;;;;0.70;0.20;;;23.60;99.90;;;;;;5072551;28;20442;-74
2022/08/14 02:21:31;;;;;;;0.70;0.10;;;23.50;99.90;;;;;;5072203;28;20445;-75
2022/08/14 02:24:16;;;;;;;0.70;0.20;;;23.50;99.90;;;;;;5072211;28;20567;-76
2022/08/14 02:27:04;;;;;;;1.00;0.30;;;23.50;99.90;;;;;;5072714;28;20797;-75
2022/08/14 02:29:55;;;;;;;0.70;0.10;;;23.50;99.90;;;;;;5056568;28;20447;-75
2022/08/14 02:32:27;;;;;;;0.70;0.20;;;23.40;99.90;;;;;;5055443;28;20454;-75
2022/08/14 02:35:09;;;;;;;0.70;0.20;;;23.40;99.90;;;;;;5056524;28;20469;-75
2022/08/14 02:37:39;;;;;;;0.70;0.20;;;23.40;99.90;;;;;;5054616;28;20450;-76
2022/08/14 02:40:17;;;;;;;0.70;0.20;;;23.40;99.90;;;;;;5055492;28;20481;-75
2022/08/14 02:42:46;;;;;;;0.70;0.10;;;23.30;99.90;;;;;;5060506;28;20513;-76
2022/08/14 02:45:24;;;;;;;1.13;0.87;;;23.30;99.90;;;;;;5060912;28;20470;-74
2022/08/14 02:48:00;;;;;;;0.70;0.20;;;23.30;99.90;;;;;;5057626;28;20443;-75
2022/08/14 02:50:28;;;;;;;0.80;0.40;;;23.20;99.90;;;;;;5060415;28;20438;-75
2022/08/14 02:53:00;;;;;;;0.70;0.27;;;23.20;99.90;;;;;;5058973;28;20549;-75
2022/08/14 02:55:32;;;;;;;0.70;0.20;;;23.20;99.90;;;;;;5057707;28;20458;-75
2022/08/14 02:58:00;;;;;;;1.23;1.13;;;23.10;99.90;;;;;;5057222;28;20798;-75
2022/08/14 03:00:34;;;;;;;0.70;0.20;;;23.10;99.90;;;;;;5056390;28;20514;-75
2022/08/14 03:03:07;;;;;;;1.33;0.83;;;23.10;99.90;;;;;;5056676;28;20508;-76
2022/08/14 03:05:36;;;;;;;0.70;0.53;;;23.10;99.90;;;;;;5056884;28;20507;-75
2022/08/14 03:08:10;;;;;;;0.70;0.20;;;23.00;99.90;;;;;;5057256;28;20489;-75
2022/08/14 03:10:43;;;;;;;0.70;0.10;;;23.00;99.90;;;;;;5055903;28;20449;-75
2022/08/14 03:13:17;;;;;;;0.70;0.20;;;23.00;99.90;;;;;;5056446;28;20462;-75
2022/08/14 03:15:52;;;;;;;0.70;0.10;;;23.10;99.90;;;;;;5060492;28;20533;-74
2022/08/14 03:18:27;;;;;;;0.70;0.20;;;23.10;99.90;;;;;;5066398;28;20513;-74
2022/08/14 03:21:00;;;;;;;0.70;0.10;;;23.10;99.90;;;;;;5066399;28;20456;-74
2022/08/14 03:23:34;;;;;;;0.70;0.10;;;23.10;99.90;;;;;;5067404;28;20482;-74
2022/08/14 03:26:07;;;;;;;0.70;0.20;;;23.10;99.90;;;;;;5065210;28;20442;-75
2022/08/14 03:28:47;;;;;;;0.70;0.17;;;23.20;99.90;;;;;;5066120;28;20445;-75
2022/08/14 03:31:15;;;;;;;0.70;0.20;;;23.30;99.90;;;;;;5064667;28;20787;-76
2022/08/14 03:33:43;;;;;;;0.70;0.20;;;23.40;99.90;;;;;;5063378;28;20777;-75
2022/08/14 03:36:21;;;;;;;0.70;0.10;;;23.40;99.90;;;;;;5056711;28;20453;-75
2022/08/14 03:39:10;;;;;;;0.70;0.17;;;23.40;99.90;;;;;;5054669;28;20442;-75
2022/08/14 03:41:52;;;;;;;0.70;0.20;;;23.40;99.90;;;;;;5054347;28;20446;-76
2022/08/14 03:44:19;;;;;;;0.97;0.37;;;23.40;99.90;;;;;;5053894;28;20482;-76
2022/08/14 03:47:07;;;;;;;0.70;0.20;;;23.40;99.90;;;;;;5054170;28;20438;-76
2022/08/14 03:49:38;;;;;;;0.70;0.20;;;23.40;99.90;;;;;;5054183;28;20443;-75
2022/08/14 03:52:10;;;;;;;0.70;0.10;;;23.40;99.90;;;;;;5054253;28;20872;-75
2022/08/14 03:54:58;;;;;;;0.70;0.10;;;23.40;99.90;;;;;;5053320;28;20522;-75
2022/08/14 03:57:31;;;;;;;0.70;0.20;;;23.30;99.90;;;;;;5053758;28;20443;-76
2022/08/14 04:00:02;;;;;;;0.70;0.10;;;23.30;99.90;;;;;;5054537;28;20447;-76
2022/08/14 04:02:30;;;;;;;0.70;0.10;;;23.30;99.90;;;;;;5053717;28;20435;-75
2022/08/14 04:05:05;;;;;;;0.70;0.10;;;23.20;99.90;;;;;;5053442;28;20828;-75
2022/08/14 04:07:40;;;;;;;0.70;0.10;;;23.20;99.90;;;;;;5053181;28;20507;-76
2022/08/14 04:10:28;;;;;;;0.70;0.10;;;23.20;99.90;;;;;;5053462;28;20439;-76
2022/08/14 04:13:01;;;;;;;0.70;0.10;;;23.20;99.90;;;;;;5053157;28;20987;-75
2022/08/14 04:15:30;;;;;;;0.70;0.10;;;23.20;99.90;;;;;;5053154;28;20497;-75
2022/08/14 04:18:19;;;;;;;0.70;0.10;;;23.20;99.90;;;;;;5053051;28;20813;-76
2022/08/14 04:20:47;;;;;;;0.70;0.10;;;23.10;99.90;;;;;;5053243;28;20449;-76
2022/08/14 04:23:22;;;;;;;0.70;0.10;;;23.10;99.90;;;;;;5053276;28;20462;-75
2022/08/14 04:26:00;;;;;;;0.70;0.30;;;23.00;99.90;;;;;;5053124;28;20455;-76
2022/08/14 04:28:30;;;;;;;0.70;0.10;;;23.00;99.90;;;;;;5052919;28;20439;-75
2022/08/14 04:31:20;;;;;;;0.70;0.10;;;22.90;99.90;;;;;;5053596;28;20445;-74
2022/08/14 04:34:08;;;;;;;0.70;0.17;;;22.80;99.90;;;;;;5052983;28;20455;-75
2022/08/14 04:45:22;;;;;;;0.70;0.20;;;22.70;99.90;;;;;;5052497;28;20584;-74
2022/08/14 04:50:37;;;;;;;0.70;0.10;;;22.60;99.90;;;;;;5052858;28;20442;-76
2022/08/14 04:53:13;;;;;;;0.70;0.10;;;22.60;99.90;;;;;;5052482;28;20466;-76
2022/08/14 04:55:43;;;;;;;0.70;0.10;;;22.60;99.90;;;;;;5052252;28;21017;-75
2022/08/14 04:58:12;;;;;;;0.70;0.20;;;22.70;99.90;;;;;;5052179;28;20478;-76
2022/08/14 05:00:57;;;;;;;0.70;0.20;;;22.70;99.90;;;;;;5052345;28;20530;-75
2022/08/14 05:03:30;;;;;;;0.70;0.20;;;22.70;99.90;;;;;;5052198;28;20462;-75
2022/08/14 05:06:00;;;;;;;0.70;0.20;;;22.70;99.90;;;;;;5052223;28;20996;-75
2022/08/14 05:08:30;;;;;;;0.70;0.20;;;22.70;99.90;;;;;;5052346;28;20442;-75
2022/08/14 05:11:18;;;;;;;0.70;0.10;;;22.80;99.90;;;;;;5052136;28;20973;-76
2022/08/14 05:13:48;;;;;;;0.70;0.10;;;22.80;99.90;;;;;;5052118;28;20529;-75
2022/08/14 05:16:37;;;;;;;0.83;0.70;;;22.90;99.90;;;;;;5051708;28;20537;-74
2022/08/14 05:19:12;;;;;;;0.70;0.20;;;22.80;99.90;;;;;;5052043;28;20453;-75
2022/08/14 05:21:55;;;;;;;0.70;0.10;;;22.90;99.90;;;;;;5052102;28;20442;-75
2022/08/14 05:24:43;;;;;;;0.70;0.10;;;22.80;99.90;;;;;;5051690;28;20537;-76
2022/08/14 05:27:10;;;;;;;0.70;0.20;;;22.80;99.90;;;;;;5045167;28;20454;-74
2022/08/14 05:29:39;;;;;;;0.70;0.20;;;22.80;99.90;;;;;;5046172;28;20449;-76
2022/08/14 05:32:12;;;;;;;0.70;0.13;;;22.80;99.90;;;;;;5051817;28;20541;-75
2022/08/14 05:34:42;;;;;;;0.70;0.10;;;22.90;99.90;;;;;;5051810;28;20485;-75
2022/08/14 05:37:13;;;;;;;0.70;0.20;;;22.90;99.90;;;;;;5052099;28;20479;-75
2022/08/14 05:39:45;;;;;;;0.70;0.10;;;;;;;;;;5052862;28;20443;-77
2022/08/14 05:42:14;;;;;;;1.23;0.60;;;22.90;99.90;;;;;;5052924;28;20427;-75
2022/08/14 05:44:56;;;;;;;0.70;0.20;;;23.00;99.90;;;;;;5052182;28;20486;-75
2022/08/14 05:47:25;;;;;;;0.80;0.73;;;23.00;99.90;;;;;;5051864;28;20447;-74
2022/08/14 05:50:07;;;;;;;1.10;0.70;;;23.00;99.90;;;;;;5051850;28;20478;-76
2022/08/14 05:52:44;;;;;;;0.70;0.23;;;23.10;99.90;;;;;;5051873;28;20497;-76
2022/08/14 05:55:13;;;;;;;0.70;0.10;;;23.10;99.90;;;;;;5051828;28;20446;-76
2022/08/14 05:57:49;;;;;;;0.70;0.10;;;23.10;99.90;;;;;;5051729;28;20438;-76
2022/08/14 06:00:20;;;;;;;0.70;0.10;;;23.20;99.90;;;;;;5051659;28;20438;-76
2022/08/14 06:02:57;;;;;;;0.70;0.20;;;23.20;99.90;;;;;;5051974;28;20937;-76
2022/08/14 06:05:28;;;;;;;0.70;0.30;;;23.30;99.90;;;;;;5051393;28;20988;-75
2022/08/14 06:07:56;;;;;;;0.80;0.57;;;23.30;99.90;;;;;;5051338;28;20825;-76
2022/08/14 06:10:25;;;;;;;0.70;0.20;;;23.30;99.90;;;;;;5052050;28;20860;-74
2022/08/14 06:12:55;;;;;;;1.67;0.40;;;23.30;99.90;;;;;;5051116;28;20534;-75
2022/08/14 06:15:25;;;;;;;0.70;0.20;;;23.30;99.90;;;;;;5051351;28;20439;-75
2022/08/14 06:18:00;;;;;;;0.70;0.20;;;23.30;99.90;;;;;;5049585;28;20491;-76
2022/08/14 06:20:29;;;;;;;0.70;0.10;;;23.40;99.90;;;;;;5055799;28;20541;-76
2022/08/14 06:22:58;;;;;;;0.70;0.10;;;23.40;99.90;;;;;;5057154;28;20462;-76
2022/08/14 06:25:27;;;;;;;0.70;0.10;;;23.40;99.90;;;;;;5058964;28;20492;-76
2022/08/14 06:27:55;;;;;;;0.70;0.13;;;23.40;99.90;;;;;;5065923;28;20445;-73
2022/08/14 06:30:31;;;;;;;0.70;0.10;;;23.50;99.90;;;;;;5055792;28;20465;-74
2022/08/14 06:33:16;;;;;;;0.70;0.10;;;23.60;99.90;;;;;;5055635;28;20502;-76
2022/08/14 06:35:46;;;;;;;0.70;0.10;;;23.60;99.90;;;;;;5055030;28;20449;-76
2022/08/14 06:38:16;;;;;;;0.70;0.10;;;23.70;99.90;;;;;;5055057;28;20444;-73
2022/08/14 06:40:45;;;;;;;0.70;0.20;;;23.80;99.90;;;;;;5055181;28;20442;-74
2022/08/14 06:43:15;;;;;;;0.70;0.27;;;23.90;99.90;;;;;;5055062;28;20474;-73
2022/08/14 06:45:46;;;;;;;0.70;0.10;;;23.90;99.90;;;;;;5048874;28;20476;-75
2022/08/14 06:48:24;;;;;;;0.70;0.20;;;23.90;99.90;;;;;;5043412;28;20439;-75
2022/08/14 06:50:54;;;;;;;0.70;0.20;;;24.00;99.90;;;;;;5054742;28;20497;-75
2022/08/14 06:53:24;;;;;;;0.70;0.10;;;24.20;99.90;;;;;;5053906;28;20545;-75
2022/08/14 06:55:55;;;;;;;0.70;0.10;;;24.20;99.90;;;;;;5054625;28;20861;-75
2022/08/14 06:58:28;;;;;;;0.70;0.20;;;24.30;99.90;;;;;;5070655;28;20532;-76
2022/08/14 07:06:50;;;;;;;0.70;0.20;;;24.30;99.90;;;;;;5074867;28;20461;-75
2022/08/14 07:09:23;;;;;;;0.70;0.10;;;24.40;99.90;;;;;;5074814;28;20430;-75
2022/08/14 07:11:51;;;;;;;0.70;0.20;;;24.40;99.90;;;;;;5061453;28;20474;-74
2022/08/14 07:14:19;;;;;;;0.70;0.20;;;24.30;99.90;;;;;;5054316;28;20803;-75
2022/08/14 07:16:47;;;;;;;1.27;0.37;;;24.30;99.90;;;;;;5054103;28;20446;-74
2022/08/14 07:19:18;;;;;;;0.70;0.20;;;24.30;99.90;;;;;;5054530;28;20442;-74
2022/08/14 07:21:48;;;;;;;1.00;0.50;;;24.30;99.90;;;;;;5054504;28;20818;-74
2022/08/14 07:24:17;;;;;;;0.70;0.20;;;24.20;99.90;;;;;;5054433;28;20470;-74
2022/08/14 07:26:53;;;;;;;1.37;0.87;;;;;;;;;;5054259;28;20486;-76
2022/08/14 07:29:22;;;;;;;0.80;0.50;;;24.30;99.90;;;;;;5051939;28;20446;-75
2022/08/14 07:31:56;;;;;;;0.70;0.10;;;24.30;99.90;;;;;;5054499;28;20511;-77
2022/08/14 07:34:25;;;;;;;1.03;0.40;;;24.30;99.90;;;;;;5054342;28;21217;-77
2022/08/14 07:37:09;;;;;;;0.70;0.20;;;24.40;99.90;;;;;;5053162;28;20445;-75
2022/08/14 07:39:37;;;;;;;0.70;0.10;;;24.50;99.90;;;;;;5054067;28;20446;-77
2022/08/14 07:42:10;;;;;;;0.70;0.10;;;24.50;99.90;;;;;;5053954;28;20998;-76
2022/08/14 07:44:39;;;;;;;0.87;0.50;;;24.60;99.90;;;;;;5054059;28;20545;-76
2022/08/14 07:47:15;;;;;;;0.87;0.40;;;24.70;99.90;;;;;;5053899;28;20474;-75
2022/08/14 07:49:57;;;;;;;0.70;0.10;;;24.70;99.90;;;;;;5054129;28;20447;-76
2022/08/14 07:52:27;;;;;;;0.70;0.20;;;24.90;99.90;;;;;;5053928;28;20457;-74
2022/08/14 07:55:00;;;;;;;2.60;0.50;;;24.90;99.90;;;;;;5054125;28;20458;-71
2022/08/14 07:57:28;;;;;;;0.70;0.30;;;24.90;99.90;;;;;;5055227;28;20447;-77
2022/08/14 07:59:56;;;;;;;0.70;0.10;;;24.90;99.90;;;;;;5053952;28;20468;-77
2022/08/14 08:02:27;;;;;;;0.70;0.20;;;24.90;99.90;;;;;;5049225;28;20446;-76
2022/08/14 08:05:01;;;;;;;0.70;0.20;;;25.00;99.90;;;;;;5053307;28;21008;-77
2022/08/14 08:07:30;;;;;;;0.70;0.10;;;25.10;99.90;;;;;;5052345;28;20474;-77
2022/08/14 08:10:00;;;;;;;0.70;0.10;;;25.10;99.90;;;;;;5055392;28;20974;-76
2022/08/14 08:12:30;;;;;;;0.70;0.10;;;25.20;99.90;;;;;;5053345;28;20438;-77
2022/08/14 08:15:01;;;;;;;0.70;0.20;;;25.20;99.90;;;;;;5052115;28;20498;-78
2022/08/14 08:17:38;;;;;;;0.70;0.20;;;25.20;99.90;;;;;;5062642;28;20439;-77
2022/08/14 08:20:25;;;;;;;0.70;0.13;;;25.20;99.90;;;;;;5052424;28;20447;-77
2022/08/14 08:22:57;;;;;;;1.10;0.63;;;25.20;99.90;;;;;;5051406;28;20818;-77
2022/08/14 08:25:34;;;;;;;0.70;0.20;;;25.20;99.90;;;;;;5051126;28;20442;-76
2022/08/14 08:28:09;;;;;;;0.70;0.20;;;25.30;99.90;;;;;;5045167;28;20583;-78
2022/08/14 08:30:51;;;;;;;0.70;0.10;;;25.40;99.90;;;;;;5060422;28;20453;-77
2022/08/14 08:33:21;;;;;;;0.70;0.10;;;25.50;99.90;;;;;;5058378;28;20463;-77
2022/08/14 08:35:51;;;;;;;0.70;0.20;;;25.50;99.90;;;;;;5052865;28;20497;-76
2022/08/14 08:38:20;;;;;;;1.43;0.50;;;25.60;99.90;;;;;;5051821;28;20482;-77
2022/08/14 08:41:09;;;;;;;0.70;0.10;;;25.70;99.90;;;;;;5053222;28;20443;-75
2022/08/14 08:43:39;;;;;;;0.70;0.10;;;25.80;99.90;;;;;;5054169;28;20466;-77
2022/08/14 08:46:19;;;;;;;0.70;0.10;;;25.80;99.90;;;;;;5052784;28;20477;-77
2022/08/14 08:48:52;;;;;;;0.70;0.10;;;25.90;99.90;;;;;;5067777;28;20887;-76
2022/08/14 08:51:23;;;;;;;0.70;0.10;;;26.00;99.90;;;;;;5052842;28;20841;-76
2022/08/14 08:53:59;;;;;;;0.70;0.10;;;26.10;99.90;;;;;;5066944;28;20819;-77
2022/08/14 08:56:39;;;;;;;0.70;0.20;;;26.10;99.90;;;;;;5051698;28;20438;-77
2022/08/14 08:59:23;;;;;;;0.70;0.20;;;26.20;99.90;;;;;;5050906;28;20446;-77
2022/08/14 09:02:03;;;;;;;0.70;0.10;;;26.20;99.90;;;;;;5053170;28;20451;-78
2022/08/14 09:04:36;;;;;;;0.70;0.20;;;26.30;99.90;;;;;;5066539;28;20470;-77
2022/08/14 09:07:14;;;;;;;1.90;1.80;;;26.30;99.90;;;;;;5084846;28;20488;-78
2022/08/14 09:09:51;;;;;;;0.70;0.20;;;26.20;99.90;;;;;;5077919;28;20469;-79
2022/08/14 09:12:26;;;;;;;0.70;0.10;;;26.30;99.90;;;;;;5066016;28;20442;-77
2022/08/14 09:15:01;;;;;;;0.70;0.10;;;26.30;99.90;;;;;;5067374;28;20940;-78
2022/08/14 09:17:29;;;;;;;0.70;0.20;;;27.70;99.90;;;;;;5084614;28;20522;-78
2022/08/14 09:19:58;;;;;;;1.00;0.50;;;26.40;99.90;;;;;;5087232;28;20822;-79
2022/08/14 09:22:32;;;;;;;2.47;2.27;;;26.50;99.90;;;;;;5087663;28;20446;-79
2022/08/14 09:25:10;;;;;;;0.70;0.20;;;26.50;99.90;;;;;;5078883;28;20470;-81
2022/08/14 09:27:42;;;;;;;0.70;0.17;;;26.60;99.90;;;;;;5078487;28;20486;-81
2022/08/14 09:30:11;;;;;;;0.70;0.20;;;26.80;99.90;;;;;;5068555;28;20820;-79
2022/08/14 09:33:31;;;;;;;1.17;1.07;;;26.90;99.90;;;;;;5077922;28;20480;-79
2022/08/14 09:36:38;;;;;;;0.70;0.30;;;26.90;99.90;;;;;;5084764;28;20734;-79
2022/08/14 09:39:20;;;;;;;0.70;0.20;;;26.90;99.90;;;;;;5022137;28;20539;-78
2022/08/14 09:42:06;;;;;;;0.90;0.50;;;27.10;99.90;;;;;;5067878;28;20481;-79
2022/08/14 09:45:10;;;;;;;0.70;0.20;;;27.10;99.90;;;;;;5057647;28;20526;-79
2022/08/14 09:47:44;;;;;;;1.13;0.87;;;27.10;99.90;;;;;;5068532;28;20470;-79
2022/08/14 09:50:17;;;;;;;0.70;0.20;;;27.30;99.90;;;;;;5051458;28;20439;-80
2022/08/14 09:52:50;;;;;;;0.70;0.10;;;27.40;99.90;;;;;;5058503;28;20956;-79
2022/08/14 09:55:26;;;;;;;0.70;0.20;;;27.30;99.90;;;;;;5067149;28;20454;-80
2022/08/14 09:58:08;;;;;;;4.60;0.77;;;27.40;99.90;;;;;;5079580;28;20465;-79
2022/08/14 10:00:48;;;;;;;1.20;0.60;;;27.60;99.90;;;;;;5071357;28;20442;-76
2022/08/14 10:03:29;;;;;;;0.70;0.20;;;27.60;99.90;;;;;;5047045;28;20520;-75
2022/08/14 10:06:08;;;;;;;0.80;0.50;;;27.60;99.90;;;;;;5071972;28;20438;-77
2022/08/14 10:08:46;;;;;;;0.70;0.20;;;27.70;99.90;;;;;;5073637;28;20461;-79
2022/08/14 10:11:22;;;;;;;0.70;0.20;;;27.90;99.90;;;;;;5071132;28;20889;-76
2022/08/14 10:13:53;;;;;;;0.70;0.10;;;28.00;99.90;;;;;;5054978;28;20482;-79
2022/08/14 10:16:24;;;;;;;0.70;0.40;;;28.10;99.90;;;;;;5054543;28;20501;-77
2022/08/14 10:19:06;;;;;;;0.70;0.20;;;28.20;99.90;;;;;;5051137;28;20469;-77
2022/08/14 10:21:38;;;;;;;0.70;0.20;;;28.20;99.90;;;;;;5058801;28;20446;-76
2022/08/14 10:24:28;;;;;;;0.70;0.20;;;28.40;99.90;;;;;;5048044;28;20865;-75
2022/08/14 10:27:17;;;;;;;0.70;0.30;;;28.40;99.90;;;;;;5053599;28;20482;-76
2022/08/14 10:29:48;;;;;;;0.70;0.20;;;28.60;99.90;;;;;;5068628;28;20441;-77
2022/08/14 10:32:17;;;;;;;0.97;0.47;;;;;;;;;;5050847;28;20462;-77
2022/08/14 10:35:06;;;;;;;0.70;0.20;;;28.80;99.90;;;;;;5032572;28;20514;-75
2022/08/14 10:37:45;;;;;;;0.70;0.20;;;29.00;99.90;;;;;;5038440;28;20462;-75
2022/08/14 10:40:16;;;;;;;0.70;0.20;;;29.10;99.90;;;;;;5058037;28;21143;-76
2022/08/14 10:43:17;;;;;;;0.70;0.20;;;29.20;99.90;;;;;;5051897;28;20512;-76
2022/08/14 10:45:54;;;;;;;0.70;0.20;;;29.30;99.90;;;;;;5040009;28;20813;-78
2022/08/14 10:48:54;;;;;;;0.70;0.20;;;29.40;99.90;;;;;;5067763;28;21054;-78
2022/08/14 10:51:25;;;;;;;0.70;0.20;;;29.50;99.90;;;;;;5051451;28;21271;-76
2022/08/14 10:53:57;;;;;;;0.70;0.20;;;29.60;99.90;;;;;;5052095;28;20474;-79
2022/08/14 10:56:32;;;;;;;0.80;0.30;;;29.70;99.90;;;;;;5068541;28;20442;-79
2022/08/14 10:59:06;;;;;;;0.70;0.20;;;29.70;99.90;;;;;;5056177;28;20541;-78
2022/08/14 11:01:37;;;;;;;0.70;0.17;;;29.70;99.90;;;;;;5071677;28;20537;-79
2022/08/14 11:04:22;;;;;;;0.70;0.20;;;29.80;99.90;;;;;;5060530;28;20833;-78
2022/08/14 11:06:54;;;;;;;0.70;0.10;;;29.80;99.90;;;;;;5039249;28;20426;-77
2022/08/14 11:09:23;;;;;;;0.70;0.20;;;29.90;99.90;;;;;;5055121;28;20434;-79
2022/08/14 11:11:58;;;;;;;0.70;0.10;;;30.00;99.90;;;;;;5055421;28;21007;-78
2022/08/14 11:14:53;;;;;;;0.70;0.10;;;30.00;99.90;;;;;;5054624;28;20458;-79
2022/08/14 11:17:30;;;;;;;0.70;0.20;;;30.10;99.90;;;;;;5055220;28;20434;-77
2022/08/14 11:20:02;;;;;;;0.70;0.20;;;30.10;99.90;;;;;;5054924;28;20937;-77
2022/08/14 11:22:32;;;;;;;0.70;0.20;;;30.10;99.90;;;;;;5059260;28;20442;-80
2022/08/14 11:25:22;;;;;;;0.70;0.20;;;30.20;99.90;;;;;;5059036;28;20439;-80
2022/08/14 11:27:53;;;;;;;0.70;0.20;;;30.20;99.90;;;;;;5070151;28;20509;-79
2022/08/14 11:30:24;;;;;;;1.07;0.97;;;30.30;99.90;;;;;;5039935;28;20428;-77
2022/08/14 11:33:12;;;;;;;0.70;0.20;;;30.40;99.90;;;;;;5051880;28;20961;-79
2022/08/14 11:35:48;;;;;;;0.70;0.30;;;30.40;99.90;;;;;;5080461;28;20477;-79
2022/08/14 11:38:20;;;;;;;0.80;0.53;;;30.40;99.90;;;;;;5081320;28;20476;-80
2022/08/14 11:40:48;;;;;;;0.80;0.20;;;30.50;99.90;;;;;;5065353;28;20430;-79
2022/08/14 11:43:19;;;;;;;0.90;0.30;;;30.60;99.90;;;;;;5072249;28;20462;-78
2022/08/14 11:45:58;;;;;;;0.80;0.20;;;30.60;99.90;;;;;;5083514;28;20591;-77
2022/08/14 11:48:30;;;;;;;0.70;0.20;;;30.60;99.90;;;;;;5066939;28;21032;-79
2022/08/14 11:51:22;;;;;;;0.70;0.20;;;30.70;99.90;;;;;;5076475;28;20535;-80
2022/08/14 11:53:53;;;;;;;0.70;0.20;;;30.70;99.90;;;;;;5061658;28;20515;-79
2022/08/14 11:56:22;;;;;;;1.20;1.03;;;30.70;99.90;;;;;;5064004;28;20550;-79
2022/08/14 11:58:56;;;;;;;0.70;0.20;;;30.60;99.90;;;;;;5069957;28;20489;-78
2022/08/14 12:01:29;;;;;;;2.33;1.20;;;30.70;99.90;;;;;;5071059;28;20466;-77
2022/08/14 12:04:09;;;;;;;1.17;1.07;;;30.80;99.90;;;;;;5063569;28;20721;-80
2022/08/14 12:06:57;;;;;;;0.80;0.50;;;30.60;99.90;;;;;;5065008;28;20444;-77
2022/08/14 12:09:30;;;;;;;0.70;0.20;;;30.60;99.90;;;;;;5065286;28;20482;-79
2022/08/14 12:11:59;;;;;;;0.70;0.20;;;30.60;99.90;;;;;;5058550;28;20477;-78
2022/08/14 12:14:28;;;;;;;0.70;0.20;;;30.70;99.90;;;;;;5061364;28;21070;-78
2022/08/14 12:17:07;;;;;;;0.70;0.20;;;30.80;99.90;;;;;;5078350;28;20497;-77
2022/08/14 12:19:48;;;;;;;0.70;0.10;;;31.10;99.90;;;;;;5071521;28;20445;-79
2022/08/14 12:22:32;;;;;;;0.70;0.20;;;31.10;99.90;;;;;;5062538;28;20477;-79
2022/08/14 12:25:00;;;;;;;0.70;0.20;;;31.20;99.90;;;;;;5042508;28;20545;-79
2022/08/14 12:27:41;;;;;;;0.70;0.10;;;31.20;99.90;;;;;;5058004;28;20435;-79
2022/08/14 12:30:27;;;;;;;0.70;0.20;;;31.20;99.90;;;;;;5061664;28;20504;-80
2022/08/14 12:33:07;;;;;;;0.80;0.40;;;31.20;99.90;;;;;;5045949;28;20454;-79
2022/08/14 12:35:40;;;;;;;0.70;0.20;;;31.20;99.90;;;;;;5058917;28;20530;-79
2022/08/14 12:38:10;;;;;;;0.70;0.20;;;31.20;99.90;;;;;;5072557;28;20452;-80
2022/08/14 12:40:49;;;;;;;0.70;0.20;;;31.30;99.90;;;;;;5075640;28;20456;-79
2022/08/14 12:43:18;;;;;;;0.70;0.20;;;31.40;99.90;;;;;;5057571;28;20870;-79
2022/08/14 12:45:49;;;;;;;0.70;0.20;;;31.40;99.90;;;;;;5056940;28;20451;-80
2022/08/14 12:48:20;;;;;;;0.80;0.30;;;31.60;99.90;;;;;;5056294;28;20462;-79
2022/08/14 12:50:59;;;;;;;0.70;0.20;;;31.50;99.90;;;;;;5057385;28;20441;-79
2022/08/14 12:53:37;;;;;;;0.80;0.40;;;31.60;99.90;;;;;;5056176;28;20467;-79
2022/08/14 12:56:06;;;;;;;0.70;0.20;;;31.50;99.90;;;;;;5055649;28;20449;-79
2022/08/14 12:58:56;;;;;;;1.10;0.40;;;31.40;99.90;;;;;;5057783;28;20438;-79
2022/08/14 13:01:26;;;;;;;0.70;0.20;;;31.30;99.90;;;;;;5059635;28;20514;-80
2022/08/14 13:04:07;;;;;;;0.70;0.10;;;31.30;99.90;;;;;;5064398;28;20479;-81
2022/08/14 13:06:37;;;;;;;1.10;0.90;;;31.40;99.90;;;;;;5069493;28;20453;-79
2022/08/14 13:09:07;;;;;;;1.77;1.17;;;31.50;99.90;;;;;;5071946;28;20473;-80
2022/08/14 13:11:43;;;;;;;0.70;0.10;;;31.60;99.90;;;;;;5070837;28;20500;-80
2022/08/14 13:14:13;;;;;;;0.80;0.40;;;31.60;99.90;;;;;;5073512;28;20485;-79
2022/08/14 13:16:45;;;;;;;0.70;0.20;;;31.70;99.90;;;;;;5072466;28;20443;-78
2022/08/14 13:19:20;;;;;;;0.80;0.40;;;31.80;99.90;;;;;;5069340;28;20503;-78
2022/08/14 13:21:55;;;;;;;0.70;0.20;;;31.80;99.90;;;;;;5065304;28;20462;-78
2022/08/14 13:24:39;;;;;;;0.70;0.30;;;31.80;99.90;;;;;;5078554;28;20438;-79
2022/08/14 13:27:08;;;;;;;1.07;0.47;;;32.00;99.90;;;;;;5049750;28;20528;-78
2022/08/14 13:29:40;;;;;;;0.70;0.10;;;32.10;99.90;;;;;;5076601;28;20473;-78
2022/08/14 13:32:14;;;;;;;0.70;0.20;;;32.10;99.90;;;;;;5081228;28;20460;-79
2022/08/14 13:34:47;;;;;;;1.10;0.70;;;32.10;99.90;;;;;;5080337;28;20454;-79
2022/08/14 13:37:15;;;;;;;0.70;0.20;;;32.20;99.90;;;;;;5084404;28;20505;-78
2022/08/14 13:39:48;;;;;;;0.70;0.20;;;32.30;99.90;;;;;;5067345;28;20550;-78
2022/08/14 13:42:26;;;;;;;0.70;0.20;;;32.30;99.90;;;;;;5056669;28;20454;-78
2022/08/14 13:44:59;;;;;;;0.70;0.20;;;32.40;99.90;;;;;;5066397;28;20522;-79
2022/08/14 13:47:29;;;;;;;0.70;0.20;;;32.40;99.90;;;;;;5066455;28;20446;-79
2022/08/14 13:50:01;;;;;;;0.70;0.20;;;32.40;99.90;;;;;;5066609;28;20517;-79